Palo Verde (357) Station Data

Red Flag Warning: No
Fire Weather Zone: 250
SDGE Region: Eastern
Lat/Lon: 32.813/-116.734

Observations

Time Wind Speed/Gust Temp(F) RH Fuel Moist Fuel Temp(F) Dewpt(F) Tmax(F) Tmin(F) Accum Precip 10-min Precip SL Press(mb)
4/26 2:40am 115 1 G 2 49° 78% - - 43° 51.4° 48.8° - - -
4/26 2:30am 79 1 G 2 49° 78% - - 43° 51.4° 49° - - -
4/26 2:20am 114 0 G 2 49° 80% - - 44° 51.4° 49° - - -
4/26 2:10am 282 0 G 1 49° 80% - - 43° 51.4° 49° - - -
4/26 2:00am 287 0 G 1 49° 79% - - 43° 51.4° 49° - - -
4/26 1:50am 23 1 G 2 50° 79% - - 44° 51.4° 49° - - -
4/26 1:40am 59 2 G 3 50° 81% - - 44° 51.4° 49° - - -
4/26 1:30am 20 0 G 1 49° 81% - - 44° 51.4° 49° - - -
4/26 1:20am 319 1 G 3 50° 80% - - 44° 51.4° 49.4° - - -
4/26 1:10am 74 3 G 5 50° 80% - - 44° 51.4° 49.8° - - -
4/26 1:00am 79 1 G 5 51° 80% - - 44° 51.4° 49.8° - - -
4/26 12:50am 61 2 G 4 51° 80% - - 45° 51.4° 49.8° - - -
4/26 12:40am 75 3 G 4 51° 79% - - 44° 51.4° 49.8° - - -
4/26 12:30am 2 1 G 2 50° 79% - - 44° 51.4° 49.8° - - -
4/26 12:20am 285 1 G 3 50° 78% - - 43° 51.4° 49.8° - - -
4/26 12:10am 27 1 G 3 51° 77% - - 44° 51.4° 50.4° - - -
4/26 12:00am 66 3 G 5 51° 78% - - 44° 63.7° 50.6° - - -
4/25 11:50pm 89 1 G 2 51° 77% - - 44° 63.7° 50.9° - - -
4/25 11:40pm 58 1 G 3 51° 77% - - 44° 63.7° 50.9° - - -
4/25 11:30pm 39 0 G 1 51° 77% - - 44° 63.7° 50.9° - - -
4/25 11:20pm 66 2 G 4 52° 77% - - 45° 63.7° 51.4° - - -
4/25 11:10pm 89 2 G 4 52° 77% - - 45° 63.7° 51.4° - - -
4/25 11:00pm 70 2 G 4 52° 77% - - 45° 63.7° 51.5° - - -
4/25 10:50pm 76 3 G 5 52° 76% - - 45° 63.7° 51.5° - - -
4/25 10:40pm 77 3 G 5 52° 76% - - 45° 63.7° 51.6° - - -
4/25 10:30pm 80 3 G 5 52° 76% - - 45° 63.7° 51.6° - - -
4/25 10:20pm 74 3 G 5 52° 76% - - 45° 63.7° 51.7° - - -
4/25 10:10pm 74 2 G 4 53° 75% - - 45° 63.7° 51.8° - - -
4/25 10:00pm 86 3 G 4 53° 76% - - 45° 63.7° 51.8° - - -
4/25 9:50pm 73 3 G 5 53° 74% - - 45° 63.7° 51.8° - - -
4/25 9:40pm 359 1 G 2 53° 72% - - 45° 63.7° 51.8° - - -
4/25 9:30pm 86 2 G 3 54° 72% - - 45° 63.7° 51.8° - - -
4/25 9:20pm 93 3 G 4 55° 70% - - 45° 63.7° 51.8° - - -
4/25 9:10pm 77 2 G 3 54° 67% - - 44° 63.7° 51.8° - - -
4/25 9:00pm 57 0 G 1 55° 67% - - 44° 63.7° 51.8° - - -
4/25 8:50pm 70 0 G 1 55° 66% - - 44° 63.7° 51.8° - - -
4/25 8:40pm 38 0 G 1 55° 65% - - 44° 63.7° 51.8° - - -
4/25 8:30pm 342 1 G 2 55° 65% - - 44° 63.7° 51.8° - - -
4/25 8:20pm 231 2 G 3 56° 65% - - 44° 63.7° 51.8° - - -
4/25 8:10pm 264 1 G 3 56° 64% - - 44° 63.7° 51.8° - - -
4/25 8:00pm 186 2 G 3 56° 64% - - 44° 63.7° 51.8° - - -
4/25 7:50pm 174 2 G 3 56° 63% - - 44° 63.7° 51.8° - - -
4/25 7:40pm 184 1 G 3 57° 62% - - 44° 63.7° 51.8° - - -
4/25 7:30pm 257 4 G 8 57° 61% - - 44° 63.7° 51.8° - - -
4/25 7:20pm 264 6 G 9 58° 61% - - 44° 63.7° 51.8° - - -
4/25 7:10pm 268 7 G 11 58° 60% - - 45° 63.7° 51.8° - - -
4/25 7:00pm 263 7 G 11 59° 60% - - 45° 63.7° 51.8° - - -
4/25 6:50pm 253 7 G 11 59° 60% - - 45° 63.7° 51.8° - - -
4/25 6:40pm 239 6 G 12 59° 60% - - 45° 63.7° 51.8° - - -
4/25 6:30pm 228 7 G 11 59° 63% - - 46° 63.7° 51.8° - - -
4/25 6:20pm 213 7 G 11 59° 65% - - 47° 63.7° 51.8° - - -
4/25 6:10pm 220 6 G 11 59° 65% - - 47° 63.7° 51.8° - - -
4/25 6:00pm 234 7 G 13 59° 65% - - 47° 63.7° 51.8° - - -
4/25 5:50pm 233 9 G 15 59° 65% - - 47° 63.7° 51.8° - - -
4/25 5:40pm 233 7 G 15 60° 65% - - 48° 63.7° 51.8° - - -
4/25 5:30pm 222 8 G 12 60° 65% - - 48° 63.7° 51.8° - - -
4/25 5:20pm 232 7 G 14 60° 65% - - 48° 63.7° 51.8° - - -
4/25 5:10pm 234 8 G 14 60° 63% - - 48° 63.7° 51.8° - - -
4/25 5:00pm 238 8 G 14 61° 63% - - 48° 63.7° 51.8° - - -
4/25 4:50pm 232 8 G 14 61° 62% - - 48° 63.7° 51.8° - - -
4/25 4:40pm 218 9 G 15 61° 61% - - 48° 63.7° 51.8° - - -
4/25 4:30pm 222 8 G 14 61° 61% - - 48° 63.7° 51.8° - - -
4/25 4:20pm 223 8 G 12 61° 60% - - 47° 63.7° 51.8° - - -
4/25 4:10pm 233 8 G 18 61° 61% - - 48° 63.7° 51.8° - - -
4/25 4:00pm 237 8 G 13 61° 63% - - 48° 63.7° 51.8° - - -
4/25 3:50pm 229 9 G 15 61° 62% - - 48° 63.7° 51.8° - - -
4/25 3:40pm 239 8 G 14 61° 61% - - 48° 63.7° 51.8° - - -
4/25 3:30pm 244 8 G 12 61° 61% - - 48° 63.7° 51.8° - - -
4/25 3:20pm 235 7 G 12 61° 62% - - 48° 63.7° 51.8° - - -
4/25 3:10pm 229 7 G 14 61° 63% - - 48° 63.7° 51.8° - - -
4/25 3:00pm 221 8 G 14 61° 63% - - 48° 63.7° 51.8° - - -
4/25 2:50pm 220 9 G 16 61° 62% - - 48° 63.7° 51.8° - - -
4/25 2:40pm 221 8 G 14 62° 61% - - 48° 63.7° 51.8° - - -
4/25 2:30pm 225 7 G 12 61° 60% - - 47° 63.7° 51.8° - - -
4/25 2:20pm 229 8 G 15 62° 59% - - 47° 63.7° 51.8° - - -
4/25 2:10pm 221 6 G 10 62° 60% - - 47° 63.7° 51.8° - - -
4/25 2:00pm 239 9 G 15 62° 58% - - 47° 63.7° 51.8° - - -
4/25 1:50pm 227 7 G 13 62° 58% - - 47° 63.7° 51.8° - - -
4/25 1:40pm 259 6 G 13 62° 59% - - 48° 63.7° 51.8° - - -
4/25 1:30pm 242 8 G 13 62° 59% - - 48° 63.7° 51.8° - - -
4/25 1:20pm 240 9 G 15 62° 58% - - 47° 63.7° 51.8° - - -
4/25 1:10pm 260 9 G 17 63° 56% - - 47° 63.7° 51.8° - - -
4/25 1:00pm 255 5 G 12 62° 56% - - 46° 63.7° 51.8° - - -
4/25 12:50pm 274 7 G 14 63° 52% - - 45° 63.7° 51.8° - - -
4/25 12:40pm 268 7 G 12 63° 52% - - 45° 63.7° 51.8° - - -
4/25 12:30pm 259 6 G 12 62° 54% - - 46° 63.1° 51.8° - - -
4/25 12:20pm 263 7 G 12 62° 52% - - 44° 63.1° 51.8° - - -
4/25 12:10pm 258 6 G 13 62° 53% - - 45° 63.1° 51.8° - - -
4/25 12:00pm 282 6 G 10 62° 52% - - 44° 63.1° 51.8° - - -
4/25 11:50am 277 7 G 14 63° 51% - - 44° 63.1° 51.8° - - -
4/25 11:40am 272 8 G 15 62° 53% - - 45° 62.6° 51.8° - - -
4/25 11:30am 267 5 G 10 61° 56% - - 46° 62.3° 51.8° - - -
4/25 11:20am 257 7 G 12 60° 59% - - 46° 61.6° 51.8° - - -
4/25 11:10am 253 7 G 13 61° 58% - - 46° 61.6° 51.8° - - -
4/25 11:00am 256 6 G 13 61° 56% - - 45° 61.4° 51.8° - - -
4/25 10:50am 280 5 G 12 60° 60% - - 46° 60.3° 51.8° - - -
4/25 10:40am 241 5 G 12 60° 60% - - 46° 60.2° 51.8° - - -
4/25 10:30am 235 5 G 11 60° 60% - - 46° 60.1° 51.8° - - -
4/25 10:20am 244 4 G 7 59° 63% - - 46° 59.6° 51.8° - - -
4/25 10:10am 238 5 G 9 58° 67% - - 47° 59.2° 51.8° - - -
4/25 10:00am 231 6 G 10 57° 70% - - 47° 59.2° 51.8° - - -
4/25 9:50am 261 6 G 12 58° 66% - - 47° 59.2° 51.8° - - -
4/25 9:40am 248 4 G 8 57° 67% - - 46° 58.3° 51.8° - - -
4/25 9:30am 250 5 G 9 57° 68% - - 47° 58.3° 51.8° - - -
4/25 9:20am 212 2 G 6 57° 67% - - 46° 58.2° 51.8° - - -
4/25 9:10am 231 3 G 8 57° 69% - - 47° 57.6° 51.8° - - -
4/25 9:00am 281 3 G 6 57° 73% - - 48° 57.5° 51.8° - - -
4/25 8:50am 240 3 G 6 56° 74% - - 48° 56.7° 51.8° - - -
4/25 8:40am 211 3 G 5 56° 75% - - 48° 56.2° 51.8° - - -
4/25 8:30am 254 3 G 7 55° 75% - - 48° 56.1° 51.8° - - -
4/25 8:20am 236 3 G 6 55° 75% - - 48° 56.1° 51.8° - - -
4/25 8:10am 245 3 G 7 56° 76% - - 48° 56.1° 51.8° - - -
4/25 8:00am 348 1 G 3 55° 79% - - 49° 55.5° 51.8° - - -
4/25 7:50am 312 1 G 3 55° 80% - - 49° 55° 51.8° - - -
4/25 7:40am 263 1 G 4 54° 81% - - 48° 54.4° 51.8° - - -
4/25 7:30am 276 2 G 3 54° 82% - - 49° 54.3° 51.8° - - -
4/25 7:20am 276 1 G 3 54° 82% - - 49° 54.3° 51.8° - - -
4/25 7:10am 257 1 G 2 53° 83% - - 48° 54.3° 51.8° - - -
4/25 7:00am 248 2 G 3 53° 83% - - 48° 54.3° 51.8° - - -
4/25 6:50am 236 2 G 3 53° 83% - - 48° 54.3° 51.8° - - -
4/25 6:40am 248 2 G 5 53° 82% - - 48° 54.3° 51.8° - - -
4/25 6:30am 253 2 G 3 53° 81% - - 47° 54.3° 51.8° - - -
4/25 6:20am 249 1 G 2 53° 81% - - 47° 54.3° 51.8° - - -
4/25 6:10am 216 1 G 2 53° 82% - - 47° 54.3° 51.8° - - -
4/25 6:00am 262 1 G 4 53° 83% - - 47° 54.3° 51.8° - - -
4/25 5:50am 284 1 G 3 52° 83% - - 47° 54.3° 51.8° - - -
4/25 5:40am 253 1 G 4 52° 82% - - 47° 54.3° 51.8° - - -
4/25 5:30am 160 1 G 4 52° 82% - - 47° 54.3° 52.1° - - -
4/25 5:20am 271 0 G 1 53° 81% - - 47° 54.3° 52.3° - - -
4/25 5:10am 164 0 G 1 53° 81% - - 47° 54.3° 52.4° - - -
4/25 5:00am 99 1 G 2 53° 81% - - 47° 54.3° 52.5° - - -
4/25 4:50am 94 0 G 2 53° 82% - - 47° 54.3° 52.5° - - -
4/25 4:40am 88 0 G 1 53° 83% - - 48° 54.3° 52.5° - - -
4/25 4:30am 349 0 G 1 53° 83% - - 48° 54.3° 52.5° - - -
4/25 4:20am 185 1 G 2 53° 83% - - 48° 54.3° 52.5° - - -
4/25 4:10am 193 2 G 4 53° 83% - - 48° 54.3° 52.7° - - -
4/25 4:00am 171 2 G 4 53° 84% - - 48° 54.3° 52.8° - - -
4/25 3:50am 188 4 G 6 53° 84% - - 49° 54.3° 52.8° - - -
4/25 3:40am 193 4 G 7 53° 85% - - 49° 54.3° 52.8° - - -
4/25 3:30am 194 2 G 4 53° 86% - - 49° 54.3° 52.8° - - -
4/25 3:20am 190 3 G 7 53° 86% - - 49° 54.3° 52.8° - - -
4/25 3:10am 209 4 G 9 53° 84% - - 49° 54.3° 52.9° - - -
4/25 3:00am 241 5 G 13 54° 82% - - 48° 54.3° 52.9° - - -
4/25 2:50am 236 5 G 8 54° 80% - - 48° 54.3° 52.9° - - -
4/25 2:40am 223 3 G 7 54° 78% - - 47° 54.3° 52.9° - - -
4/25 2:30am 243 3 G 5 54° 78% - - 47° 54.3° 52.9° - - -
4/25 2:20am 215 1 G 2 54° 77% - - 47° 54.2° 52.9° - - -
4/25 2:10am 219 1 G 3 54° 78% - - 47° 54.1° 52.9° - - -
4/25 2:00am 191 2 G 3 54° 78% - - 47° 54° 52.9° - - -
4/25 1:50am 184 2 G 4 54° 78% - - 47° 53.9° 52.9° - - -
4/25 1:40am 200 1 G 3 54° 79% - - 47° 53.8° 52.9° - - -
4/25 1:30am 229 2 G 5 53° 79% - - 47° 53.7° 52.9° - - -
4/25 1:20am 268 3 G 7 53° 80% - - 47° 53.6° 52.9° - - -
4/25 1:10am 244 5 G 9 53° 81% - - 47° 53.5° 52.9° - - -
4/25 1:00am 236 3 G 6 53° 81% - - 47° 53.5° 52.9° - - -
4/25 12:50am 203 3 G 6 53° 81% - - 48° 53.5° 52.9° - - -
4/25 12:40am 232 4 G 8 53° 82% - - 48° 53.5° 52.9° - - -
4/25 12:30am 217 3 G 8 53° 81% - - 48° 53.5° 53° - - -
4/25 12:20am 189 3 G 7 53° 82% - - 48° 53.5° 53° - - -
4/25 12:10am 176 3 G 6 53° 82% - - 48° 53.4° 53.1° - - -
4/25 12:00am 186 2 G 5 53° 82% - - 48° 67.4° 47.4° - - -
4/24 11:50pm 204 3 G 5 53° 82% - - 48° 67.4° 47.4° - - -
4/24 11:40pm 222 4 G 6 53° 83% - - 48° 67.4° 47.4° - - -
4/24 11:30pm 228 4 G 8 53° 83% - - 48° 67.4° 47.4° - - -
4/24 11:20pm 233 4 G 7 53° 84% - - 49° 67.4° 47.4° - - -
4/24 11:10pm 228 6 G 10 54° 83% - - 49° 67.4° 47.4° - - -
4/24 11:00pm 238 6 G 9 53° 83% - - 49° 67.4° 47.4° - - -
4/24 10:50pm 238 4 G 7 53° 87% - - 49° 67.4° 47.4° - - -
4/24 10:40pm 230 5 G 9 53° 89% - - 50° 67.4° 47.4° - - -
4/24 10:30pm 237 4 G 8 53° 90% - - 50° 67.4° 47.4° - - -
4/24 10:20pm 215 4 G 7 54° 90% - - 51° 67.4° 47.4° - - -
4/24 10:10pm 220 3 G 5 54° 89% - - 51° 67.4° 47.4° - - -
4/24 10:00pm 228 2 G 5 54° 88% - - 51° 67.4° 47.4° - - -
4/24 9:50pm 214 1 G 2 54° 87% - - 50° 67.4° 47.4° - - -
4/24 9:40pm 228 2 G 3 54° 85% - - 50° 67.4° 47.4° - - -
4/24 9:30pm 222 2 G 4 54° 85% - - 50° 67.4° 47.4° - - -
4/24 9:20pm 201 2 G 3 55° 85% - - 50° 67.4° 47.4° - - -
4/24 9:10pm 204 2 G 5 55° 85% - - 50° 67.4° 47.4° - - -
4/24 9:00pm 210 3 G 6 55° 84% - - 50° 67.4° 47.4° - - -
4/24 8:50pm 229 4 G 6 55° 83% - - 50° 67.4° 47.4° - - -
4/24 8:40pm 221 3 G 5 55° 83% - - 50° 67.4° 47.4° - - -
4/24 8:30pm 255 3 G 6 55° 83% - - 50° 67.4° 47.4° - - -
4/24 8:20pm 244 3 G 5 55° 82% - - 50° 67.4° 47.4° - - -
4/24 8:10pm 235 3 G 5 56° 82% - - 50° 67.4° 47.4° - - -
4/24 8:00pm 244 4 G 7 56° 81% - - 50° 67.4° 47.4° - - -
4/24 7:50pm 218 3 G 6 56° 80% - - 50° 67.4° 47.4° - - -
4/24 7:40pm 223 3 G 6 56° 79% - - 50° 67.4° 47.4° - - -
4/24 7:30pm 232 4 G 7 57° 78% - - 50° 67.4° 47.4° - - -
4/24 7:20pm 239 5 G 7 57° 77% - - 50° 67.4° 47.4° - - -
4/24 7:10pm 250 5 G 7 57° 76% - - 50° 67.4° 47.4° - - -
4/24 7:00pm 260 5 G 8 58° 75% - - 50° 67.4° 47.4° - - -
4/24 6:50pm 241 4 G 8 58° 74% - - 50° 67.4° 47.4° - - -
4/24 6:40pm 235 6 G 10 58° 74% - - 50° 67.4° 47.4° - - -
4/24 6:30pm 253 6 G 9 59° 72% - - 50° 67.4° 47.4° - - -
4/24 6:20pm 243 6 G 9 59° 71% - - 50° 67.4° 47.4° - - -
4/24 6:10pm 237 6 G 9 60° 70% - - 50° 67.4° 47.4° - - -
4/24 6:00pm 243 7 G 11 60° 69% - - 50° 67.4° 47.4° - - -